DTTK

Kairouan Airport

Kairouan, Tunisia
METAR DTTK 230700Z 30002KT 8000 SCT023 SCT030 09/05 Q1001
Observed Flight Rules
Feb-23 @ 07:00 UTC (an hour ago) Marginal Visual Flight Rules
Wind Visibility Clouds
300° at 2 knots 7,998 meters
  • Scattered at 2,300' AGL
  • Scattered at 3,000' AGL
Temperatures Readings
Current 9°C / 48°F
Dewpoint 5°C / 41°F
Humidity 76%
Altimeter 29.56" Hg
Pressure 1001 hPa
Elevation 68
METAR DTTK 230700Z 30002KT 8000 SCT023 SCT030 09/05 Q1001
Observed Flight Rules
Feb-23 @ 07:00 UTC
(an hour ago)
MVFR
Wind Visibility
300° at 2 knots 7,998 meters
Clouds
  • Scattered at 2,300' AGL
  • Scattered at 3,000' AGL
Temperature Dewpoint
9°C / 48°F 5°C / 41°F
Humidity Altimeter Pressure
76% 29.56" Hg 1001 hPa